sensor_id;sensor_type;location;lat;lon;timestamp;P1;durP1;ratioP1;P2;durP2;ratioP2
20482;SDS011;10400;53.198;6.592;2023-03-29T00:01:14;6.97;;;3.38;;
20482;SDS011;10400;53.198;6.592;2023-03-29T00:03:40;5.40;;;3.03;;
20482;SDS011;10400;53.198;6.592;2023-03-29T00:06:09;3.55;;;2.97;;
20482;SDS011;10400;53.198;6.592;2023-03-29T00:08:39;5.03;;;2.90;;
20482;SDS011;10400;53.198;6.592;2023-03-29T00:11:05;5.47;;;3.10;;
20482;SDS011;10400;53.198;6.592;2023-03-29T00:13:31;4.60;;;2.70;;
20482;SDS011;10400;53.198;6.592;2023-03-29T00:15:57;6.97;;;2.97;;
20482;SDS011;10400;53.198;6.592;2023-03-29T00:18:23;6.07;;;2.95;;
20482;SDS011;10400;53.198;6.592;2023-03-29T00:20:55;5.47;;;2.90;;
20482;SDS011;10400;53.198;6.592;2023-03-29T00:23:22;7.55;;;3.13;;
20482;SDS011;10400;53.198;6.592;2023-03-29T00:25:49;7.38;;;2.90;;
20482;SDS011;10400;53.198;6.592;2023-03-29T00:28:15;9.30;;;3.33;;
20482;SDS011;10400;53.198;6.592;2023-03-29T00:30:40;6.65;;;3.40;;
20482;SDS011;10400;53.198;6.592;2023-03-29T00:33:06;8.20;;;2.83;;
20482;SDS011;10400;53.198;6.592;2023-03-29T00:35:32;5.22;;;2.92;;
20482;SDS011;10400;53.198;6.592;2023-03-29T00:37:58;6.57;;;3.33;;
20482;SDS011;10400;53.198;6.592;2023-03-29T00:40:23;8.43;;;3.30;;
20482;SDS011;10400;53.198;6.592;2023-03-29T00:42:50;4.93;;;3.00;;
20482;SDS011;10400;53.198;6.592;2023-03-29T00:45:19;5.20;;;3.05;;
20482;SDS011;10400;53.198;6.592;2023-03-29T00:47:48;8.05;;;2.60;;
20482;SDS011;10400;53.198;6.592;2023-03-29T00:50:31;5.32;;;3.00;;
20482;SDS011;10400;53.198;6.592;2023-03-29T00:53:10;5.82;;;3.08;;
20482;SDS011;10400;53.198;6.592;2023-03-29T00:55:48;8.73;;;2.78;;
20482;SDS011;10400;53.198;6.592;2023-03-29T01:01:36;3.67;;;2.53;;
20482;SDS011;10400;53.198;6.592;2023-03-29T01:07:22;3.22;;;2.80;;
20482;SDS011;10400;53.198;6.592;2023-03-29T01:09:57;8.20;;;2.83;;
20482;SDS011;10400;53.198;6.592;2023-03-29T01:12:30;6.03;;;3.03;;
20482;SDS011;10400;53.198;6.592;2023-03-29T01:15:05;6.45;;;2.70;;
20482;SDS011;10400;53.198;6.592;2023-03-29T01:17:34;6.20;;;2.80;;
20482;SDS011;10400;53.198;6.592;2023-03-29T01:20:07;6.75;;;2.58;;
20482;SDS011;10400;53.198;6.592;2023-03-29T01:25:29;4.57;;;3.08;;
20482;SDS011;10400;53.198;6.592;2023-03-29T01:28:11;3.53;;;2.63;;
20482;SDS011;10400;53.198;6.592;2023-03-29T01:30:44;7.30;;;2.30;;
20482;SDS011;10400;53.198;6.592;2023-03-29T01:39:01;4.32;;;2.28;;
20482;SDS011;10400;53.198;6.592;2023-03-29T01:44:20;4.63;;;2.85;;
20482;SDS011;10400;53.198;6.592;2023-03-29T01:46:55;6.82;;;2.90;;
20482;SDS011;10400;53.198;6.592;2023-03-29T01:49:32;6.45;;;3.05;;
20482;SDS011;10400;53.198;6.592;2023-03-29T01:54:42;4.60;;;2.72;;
20482;SDS011;10400;53.198;6.592;2023-03-29T01:57:29;6.57;;;3.22;;
20482;SDS011;10400;53.198;6.592;2023-03-29T01:59:57;4.60;;;2.67;;
20482;SDS011;10400;53.198;6.592;2023-03-29T02:02:24;7.00;;;3.25;;
20482;SDS011;10400;53.198;6.592;2023-03-29T02:04:52;7.10;;;3.10;;
20482;SDS011;10400;53.198;6.592;2023-03-29T02:07:20;7.88;;;3.38;;
20482;SDS011;10400;53.198;6.592;2023-03-29T02:09:54;10.02;;;3.88;;
20482;SDS011;10400;53.198;6.592;2023-03-29T02:12:22;7.40;;;3.93;;
20482;SDS011;10400;53.198;6.592;2023-03-29T02:14:48;8.23;;;3.58;;
20482;SDS011;10400;53.198;6.592;2023-03-29T02:17:14;7.78;;;3.70;;
20482;SDS011;10400;53.198;6.592;2023-03-29T02:19:49;8.68;;;3.95;;
20482;SDS011;10400;53.198;6.592;2023-03-29T02:22:26;5.03;;;3.50;;
20482;SDS011;10400;53.198;6.592;2023-03-29T02:24:55;8.15;;;3.97;;
20482;SDS011;10400;53.198;6.592;2023-03-29T02:27:26;9.60;;;4.07;;
20482;SDS011;10400;53.198;6.592;2023-03-29T02:29:53;6.93;;;4.35;;
20482;SDS011;10400;53.198;6.592;2023-03-29T02:32:20;7.75;;;4.15;;
20482;SDS011;10400;53.198;6.592;2023-03-29T02:35:03;6.40;;;4.05;;
20482;SDS011;10400;53.198;6.592;2023-03-29T02:37:37;6.60;;;3.90;;
20482;SDS011;10400;53.198;6.592;2023-03-29T02:40:07;6.80;;;4.43;;
20482;SDS011;10400;53.198;6.592;2023-03-29T02:42:36;6.53;;;4.28;;
20482;SDS011;10400;53.198;6.592;2023-03-29T02:45:04;9.63;;;4.13;;
20482;SDS011;10400;53.198;6.592;2023-03-29T02:47:34;7.22;;;4.10;;
20482;SDS011;10400;53.198;6.592;2023-03-29T02:50:05;7.65;;;4.70;;
20482;SDS011;10400;53.198;6.592;2023-03-29T02:52:37;7.95;;;3.85;;
20482;SDS011;10400;53.198;6.592;2023-03-29T02:55:11;8.10;;;4.50;;
20482;SDS011;10400;53.198;6.592;2023-03-29T02:57:41;5.90;;;4.20;;
20482;SDS011;10400;53.198;6.592;2023-03-29T03:00:08;8.63;;;4.22;;
20482;SDS011;10400;53.198;6.592;2023-03-29T03:02:35;6.85;;;3.67;;
20482;SDS011;10400;53.198;6.592;2023-03-29T03:05:02;9.07;;;4.65;;
20482;SDS011;10400;53.198;6.592;2023-03-29T03:07:29;9.02;;;3.97;;
20482;SDS011;10400;53.198;6.592;2023-03-29T03:09:55;8.05;;;3.88;;
20482;SDS011;10400;53.198;6.592;2023-03-29T03:12:21;7.80;;;4.22;;
20482;SDS011;10400;53.198;6.592;2023-03-29T03:14:47;7.18;;;3.75;;
20482;SDS011;10400;53.198;6.592;2023-03-29T03:17:13;7.05;;;4.55;;
20482;SDS011;10400;53.198;6.592;2023-03-29T03:19:39;7.43;;;4.10;;
20482;SDS011;10400;53.198;6.592;2023-03-29T03:22:04;8.43;;;4.18;;
20482;SDS011;10400;53.198;6.592;2023-03-29T03:24:31;8.13;;;4.22;;
20482;SDS011;10400;53.198;6.592;2023-03-29T03:26:57;9.15;;;4.50;;
20482;SDS011;10400;53.198;6.592;2023-03-29T03:29:24;6.65;;;4.03;;
20482;SDS011;10400;53.198;6.592;2023-03-29T03:31:50;7.07;;;3.92;;
20482;SDS011;10400;53.198;6.592;2023-03-29T03:34:19;6.38;;;4.05;;
20482;SDS011;10400;53.198;6.592;2023-03-29T03:36:45;9.45;;;4.80;;
20482;SDS011;10400;53.198;6.592;2023-03-29T03:39:11;8.25;;;4.68;;
20482;SDS011;10400;53.198;6.592;2023-03-29T03:41:38;9.65;;;4.45;;
20482;SDS011;10400;53.198;6.592;2023-03-29T03:44:03;8.10;;;4.38;;
20482;SDS011;10400;53.198;6.592;2023-03-29T03:46:29;6.88;;;4.03;;
20482;SDS011;10400;53.198;6.592;2023-03-29T03:48:55;8.38;;;4.13;;
20482;SDS011;10400;53.198;6.592;2023-03-29T03:51:22;5.50;;;4.03;;
20482;SDS011;10400;53.198;6.592;2023-03-29T03:53:48;6.22;;;4.53;;
20482;SDS011;10400;53.198;6.592;2023-03-29T03:56:13;7.85;;;4.40;;
20482;SDS011;10400;53.198;6.592;2023-03-29T03:58:40;10.93;;;4.50;;
20482;SDS011;10400;53.198;6.592;2023-03-29T04:01:06;8.40;;;4.50;;
20482;SDS011;10400;53.198;6.592;2023-03-29T04:03:32;6.25;;;4.20;;
20482;SDS011;10400;53.198;6.592;2023-03-29T04:05:59;8.77;;;4.95;;
20482;SDS011;10400;53.198;6.592;2023-03-29T04:08:25;8.98;;;5.32;;
20482;SDS011;10400;53.198;6.592;2023-03-29T04:10:52;7.97;;;4.85;;
20482;SDS011;10400;53.198;6.592;2023-03-29T04:13:19;9.98;;;5.18;;
20482;SDS011;10400;53.198;6.592;2023-03-29T04:15:46;11.50;;;4.78;;
20482;SDS011;10400;53.198;6.592;2023-03-29T04:18:18;11.32;;;5.13;;
20482;SDS011;10400;53.198;6.592;2023-03-29T04:20:45;11.93;;;5.25;;
20482;SDS011;10400;53.198;6.592;2023-03-29T04:23:12;11.07;;;4.95;;
20482;SDS011;10400;53.198;6.592;2023-03-29T04:25:37;9.70;;;5.32;;
20482;SDS011;10400;53.198;6.592;2023-03-29T04:28:03;11.57;;;5.05;;
20482;SDS011;10400;53.198;6.592;2023-03-29T04:30:29;9.25;;;4.88;;
20482;SDS011;10400;53.198;6.592;2023-03-29T04:32:55;6.72;;;4.68;;
20482;SDS011;10400;53.198;6.592;2023-03-29T04:35:20;7.20;;;5.00;;
20482;SDS011;10400;53.198;6.592;2023-03-29T04:37:46;15.43;;;5.18;;
20482;SDS011;10400;53.198;6.592;2023-03-29T04:40:12;10.43;;;5.22;;
20482;SDS011;10400;53.198;6.592;2023-03-29T04:42:41;10.45;;;5.32;;
20482;SDS011;10400;53.198;6.592;2023-03-29T04:45:08;8.63;;;5.03;;
20482;SDS011;10400;53.198;6.592;2023-03-29T04:47:35;10.18;;;5.80;;
20482;SDS011;10400;53.198;6.592;2023-03-29T04:50:03;11.57;;;5.43;;
20482;SDS011;10400;53.198;6.592;2023-03-29T04:52:30;10.85;;;5.32;;
20482;SDS011;10400;53.198;6.592;2023-03-29T04:54:57;10.50;;;5.75;;
20482;SDS011;10400;53.198;6.592;2023-03-29T04:57:23;10.93;;;5.90;;
20482;SDS011;10400;53.198;6.592;2023-03-29T04:59:49;10.88;;;6.00;;
20482;SDS011;10400;53.198;6.592;2023-03-29T05:02:15;9.88;;;5.93;;
20482;SDS011;10400;53.198;6.592;2023-03-29T05:04:41;10.18;;;5.72;;
20482;SDS011;10400;53.198;6.592;2023-03-29T05:07:06;10.52;;;6.05;;
20482;SDS011;10400;53.198;6.592;2023-03-29T05:09:32;10.32;;;6.35;;
20482;SDS011;10400;53.198;6.592;2023-03-29T05:11:59;11.90;;;6.28;;
20482;SDS011;10400;53.198;6.592;2023-03-29T05:14:25;10.65;;;5.72;;
20482;SDS011;10400;53.198;6.592;2023-03-29T05:16:51;10.93;;;6.28;;
20482;SDS011;10400;53.198;6.592;2023-03-29T05:19:17;11.75;;;6.32;;
20482;SDS011;10400;53.198;6.592;2023-03-29T05:21:45;9.98;;;6.47;;
20482;SDS011;10400;53.198;6.592;2023-03-29T05:24:11;11.57;;;5.90;;
20482;SDS011;10400;53.198;6.592;2023-03-29T05:26:37;11.30;;;6.13;;
20482;SDS011;10400;53.198;6.592;2023-03-29T05:29:04;9.82;;;6.25;;
20482;SDS011;10400;53.198;6.592;2023-03-29T05:31:30;11.57;;;7.72;;
20482;SDS011;10400;53.198;6.592;2023-03-29T05:33:56;16.95;;;6.63;;
20482;SDS011;10400;53.198;6.592;2023-03-29T05:36:22;12.60;;;6.07;;
20482;SDS011;10400;53.198;6.592;2023-03-29T05:38:48;12.60;;;5.97;;
20482;SDS011;10400;53.198;6.592;2023-03-29T05:41:14;13.02;;;6.28;;
20482;SDS011;10400;53.198;6.592;2023-03-29T05:43:41;9.68;;;6.30;;
20482;SDS011;10400;53.198;6.592;2023-03-29T05:46:07;10.55;;;6.57;;
20482;SDS011;10400;53.198;6.592;2023-03-29T05:48:33;11.90;;;7.13;;
20482;SDS011;10400;53.198;6.592;2023-03-29T05:50:59;12.15;;;6.43;;
20482;SDS011;10400;53.198;6.592;2023-03-29T05:53:26;13.02;;;7.15;;
20482;SDS011;10400;53.198;6.592;2023-03-29T05:55:52;10.95;;;6.97;;
20482;SDS011;10400;53.198;6.592;2023-03-29T05:58:18;15.43;;;6.75;;
20482;SDS011;10400;53.198;6.592;2023-03-29T06:00:45;11.30;;;6.75;;
20482;SDS011;10400;53.198;6.592;2023-03-29T06:03:17;10.50;;;6.35;;
20482;SDS011;10400;53.198;6.592;2023-03-29T06:05:45;12.98;;;6.88;;
20482;SDS011;10400;53.198;6.592;2023-03-29T06:08:12;13.75;;;5.97;;
20482;SDS011;10400;53.198;6.592;2023-03-29T06:10:38;11.73;;;7.20;;
20482;SDS011;10400;53.198;6.592;2023-03-29T06:13:05;13.18;;;6.70;;
20482;SDS011;10400;53.198;6.592;2023-03-29T06:15:31;10.57;;;6.40;;
20482;SDS011;10400;53.198;6.592;2023-03-29T06:17:58;11.70;;;7.45;;
20482;SDS011;10400;53.198;6.592;2023-03-29T06:20:25;12.32;;;7.40;;
20482;SDS011;10400;53.198;6.592;2023-03-29T06:22:51;11.75;;;7.88;;
20482;SDS011;10400;53.198;6.592;2023-03-29T06:25:17;13.80;;;7.53;;
20482;SDS011;10400;53.198;6.592;2023-03-29T06:27:43;14.25;;;7.32;;
20482;SDS011;10400;53.198;6.592;2023-03-29T06:30:11;13.90;;;7.50;;
20482;SDS011;10400;53.198;6.592;2023-03-29T06:32:39;12.65;;;7.00;;
20482;SDS011;10400;53.198;6.592;2023-03-29T06:35:05;11.15;;;7.18;;
20482;SDS011;10400;53.198;6.592;2023-03-29T06:37:31;12.68;;;7.97;;
20482;SDS011;10400;53.198;6.592;2023-03-29T06:39:57;12.15;;;7.28;;
20482;SDS011;10400;53.198;6.592;2023-03-29T06:42:23;14.10;;;7.95;;
20482;SDS011;10400;53.198;6.592;2023-03-29T06:44:49;14.80;;;8.07;;
20482;SDS011;10400;53.198;6.592;2023-03-29T06:47:15;11.88;;;7.53;;
20482;SDS011;10400;53.198;6.592;2023-03-29T06:49:41;12.48;;;7.20;;
20482;SDS011;10400;53.198;6.592;2023-03-29T06:52:08;11.20;;;7.40;;
20482;SDS011;10400;53.198;6.592;2023-03-29T06:54:33;12.63;;;8.35;;
20482;SDS011;10400;53.198;6.592;2023-03-29T06:56:59;11.95;;;7.78;;
20482;SDS011;10400;53.198;6.592;2023-03-29T06:59:26;12.55;;;7.85;;
20482;SDS011;10400;53.198;6.592;2023-03-29T07:01:52;12.85;;;8.38;;
20482;SDS011;10400;53.198;6.592;2023-03-29T07:04:18;12.95;;;7.85;;
20482;SDS011;10400;53.198;6.592;2023-03-29T07:06:46;12.20;;;7.53;;
20482;SDS011;10400;53.198;6.592;2023-03-29T07:09:16;13.68;;;7.53;;
20482;SDS011;10400;53.198;6.592;2023-03-29T07:11:43;13.57;;;8.00;;
20482;SDS011;10400;53.198;6.592;2023-03-29T07:14:10;12.52;;;8.00;;
20482;SDS011;10400;53.198;6.592;2023-03-29T07:16:36;12.88;;;8.02;;
20482;SDS011;10400;53.198;6.592;2023-03-29T07:19:02;13.77;;;7.97;;
20482;SDS011;10400;53.198;6.592;2023-03-29T07:21:29;10.30;;;7.75;;
20482;SDS011;10400;53.198;6.592;2023-03-29T07:23:55;11.80;;;7.13;;
20482;SDS011;10400;53.198;6.592;2023-03-29T07:26:22;10.75;;;7.22;;
20482;SDS011;10400;53.198;6.592;2023-03-29T07:28:49;14.25;;;7.93;;
20482;SDS011;10400;53.198;6.592;2023-03-29T07:31:15;12.38;;;6.85;;
20482;SDS011;10400;53.198;6.592;2023-03-29T07:33:41;11.52;;;7.22;;
20482;SDS011;10400;53.198;6.592;2023-03-29T07:36:08;11.45;;;7.10;;
20482;SDS011;10400;53.198;6.592;2023-03-29T07:38:35;11.50;;;6.88;;
20482;SDS011;10400;53.198;6.592;2023-03-29T07:41:02;12.05;;;7.15;;
20482;SDS011;10400;53.198;6.592;2023-03-29T07:43:29;13.85;;;7.43;;
20482;SDS011;10400;53.198;6.592;2023-03-29T07:45:54;10.57;;;7.63;;
20482;SDS011;10400;53.198;6.592;2023-03-29T07:48:22;10.45;;;7.05;;
20482;SDS011;10400;53.198;6.592;2023-03-29T07:50:48;11.02;;;7.18;;
20482;SDS011;10400;53.198;6.592;2023-03-29T07:53:14;10.60;;;7.53;;
20482;SDS011;10400;53.198;6.592;2023-03-29T07:55:40;14.23;;;7.68;;
20482;SDS011;10400;53.198;6.592;2023-03-29T07:58:11;10.63;;;7.45;;
20482;SDS011;10400;53.198;6.592;2023-03-29T08:00:41;11.30;;;7.10;;
20482;SDS011;10400;53.198;6.592;2023-03-29T08:03:09;10.25;;;7.65;;
20482;SDS011;10400;53.198;6.592;2023-03-29T08:05:36;10.07;;;7.15;;
20482;SDS011;10400;53.198;6.592;2023-03-29T08:08:03;12.60;;;7.30;;
20482;SDS011;10400;53.198;6.592;2023-03-29T08:10:29;11.90;;;7.75;;
20482;SDS011;10400;53.198;6.592;2023-03-29T08:12:57;11.70;;;6.88;;
20482;SDS011;10400;53.198;6.592;2023-03-29T08:15:23;14.57;;;7.13;;
20482;SDS011;10400;53.198;6.592;2023-03-29T08:17:50;10.98;;;6.70;;
20482;SDS011;10400;53.198;6.592;2023-03-29T08:20:16;10.65;;;7.55;;
20482;SDS011;10400;53.198;6.592;2023-03-29T08:22:41;12.60;;;6.80;;
20482;SDS011;10400;53.198;6.592;2023-03-29T08:25:08;9.85;;;6.55;;
20482;SDS011;10400;53.198;6.592;2023-03-29T08:27:33;9.90;;;7.07;;
20482;SDS011;10400;53.198;6.592;2023-03-29T08:29:59;11.05;;;7.07;;
20482;SDS011;10400;53.198;6.592;2023-03-29T08:32:25;11.48;;;7.10;;
20482;SDS011;10400;53.198;6.592;2023-03-29T08:34:50;10.93;;;6.97;;
20482;SDS011;10400;53.198;6.592;2023-03-29T08:37:16;11.27;;;6.88;;
20482;SDS011;10400;53.198;6.592;2023-03-29T08:39:43;11.88;;;6.68;;
20482;SDS011;10400;53.198;6.592;2023-03-29T08:44:53;11.88;;;6.97;;
20482;SDS011;10400;53.198;6.592;2023-03-29T08:50:03;10.25;;;7.18;;
20482;SDS011;10400;53.198;6.592;2023-03-29T08:54:57;13.52;;;6.72;;
20482;SDS011;10400;53.198;6.592;2023-03-29T08:57:30;10.90;;;7.00;;
20482;SDS011;10400;53.198;6.592;2023-03-29T08:59:58;10.40;;;6.35;;
20482;SDS011;10400;53.198;6.592;2023-03-29T09:02:27;10.30;;;6.32;;
20482;SDS011;10400;53.198;6.592;2023-03-29T09:05:07;13.02;;;6.43;;
20482;SDS011;10400;53.198;6.592;2023-03-29T09:07:42;12.15;;;6.70;;
20482;SDS011;10400;53.198;6.592;2023-03-29T09:10:11;10.35;;;6.40;;
20482;SDS011;10400;53.198;6.592;2023-03-29T09:12:43;10.73;;;6.53;;
20482;SDS011;10400;53.198;6.592;2023-03-29T09:15:25;8.68;;;6.20;;
20482;SDS011;10400;53.198;6.592;2023-03-29T09:18:06;11.88;;;7.05;;
20482;SDS011;10400;53.198;6.592;2023-03-29T09:31:56;16.20;;;7.10;;
20482;SDS011;10400;53.198;6.592;2023-03-29T09:34:27;17.17;;;6.72;;
20482;SDS011;10400;53.198;6.592;2023-03-29T09:36:58;9.80;;;6.00;;
20482;SDS011;10400;53.198;6.592;2023-03-29T09:39:36;15.18;;;6.60;;
20482;SDS011;10400;53.198;6.592;2023-03-29T09:42:07;13.30;;;7.05;;
20482;SDS011;10400;53.198;6.592;2023-03-29T09:44:37;12.40;;;6.32;;
20482;SDS011;10400;53.198;6.592;2023-03-29T09:47:11;14.07;;;6.60;;
20482;SDS011;10400;53.198;6.592;2023-03-29T09:49:45;14.88;;;7.55;;
20482;SDS011;10400;53.198;6.592;2023-03-29T09:52:15;15.27;;;7.45;;
20482;SDS011;10400;53.198;6.592;2023-03-29T09:54:42;12.25;;;7.00;;
20482;SDS011;10400;53.198;6.592;2023-03-29T09:57:10;14.93;;;7.53;;
20482;SDS011;10400;53.198;6.592;2023-03-29T09:59:37;13.15;;;7.35;;
20482;SDS011;10400;53.198;6.592;2023-03-29T10:02:04;15.05;;;7.35;;
20482;SDS011;10400;53.198;6.592;2023-03-29T10:04:32;17.02;;;7.93;;
20482;SDS011;10400;53.198;6.592;2023-03-29T10:06:58;17.65;;;8.43;;
20482;SDS011;10400;53.198;6.592;2023-03-29T10:09:24;13.65;;;8.32;;
20482;SDS011;10400;53.198;6.592;2023-03-29T10:11:53;14.65;;;7.90;;
20482;SDS011;10400;53.198;6.592;2023-03-29T10:14:29;13.70;;;7.75;;
20482;SDS011;10400;53.198;6.592;2023-03-29T10:17:05;13.77;;;7.85;;
20482;SDS011;10400;53.198;6.592;2023-03-29T10:22:20;16.70;;;7.80;;
20482;SDS011;10400;53.198;6.592;2023-03-29T10:24:48;17.48;;;8.07;;
20482;SDS011;10400;53.198;6.592;2023-03-29T10:27:16;14.32;;;7.10;;
20482;SDS011;10400;53.198;6.592;2023-03-29T10:29:45;14.48;;;8.00;;
20482;SDS011;10400;53.198;6.592;2023-03-29T10:35:03;16.75;;;8.13;;
20482;SDS011;10400;53.198;6.592;2023-03-29T10:37:43;14.80;;;8.50;;
20482;SDS011;10400;53.198;6.592;2023-03-29T10:40:29;14.38;;;7.85;;
20482;SDS011;10400;53.198;6.592;2023-03-29T10:42:58;18.23;;;9.32;;
20482;SDS011;10400;53.198;6.592;2023-03-29T10:45:46;17.42;;;9.48;;
20482;SDS011;10400;53.198;6.592;2023-03-29T10:48:14;17.23;;;9.43;;
20482;SDS011;10400;53.198;6.592;2023-03-29T10:50:46;19.13;;;10.45;;
20482;SDS011;10400;53.198;6.592;2023-03-29T10:53:20;16.83;;;10.27;;
20482;SDS011;10400;53.198;6.592;2023-03-29T11:01:25;18.02;;;9.27;;
20482;SDS011;10400;53.198;6.592;2023-03-29T11:06:39;15.90;;;9.27;;
20482;SDS011;10400;53.198;6.592;2023-03-29T11:09:34;14.48;;;8.98;;
20482;SDS011;10400;53.198;6.592;2023-03-29T11:40:07;15.30;;;9.60;;
20482;SDS011;10400;53.198;6.592;2023-03-29T11:42:55;15.85;;;10.10;;
20482;SDS011;10400;53.198;6.592;2023-03-29T11:45:31;15.07;;;9.38;;
20482;SDS011;10400;53.198;6.592;2023-03-29T11:48:03;18.73;;;9.90;;
20482;SDS011;10400;53.198;6.592;2023-03-29T11:50:46;14.52;;;8.82;;
20482;SDS011;10400;53.198;6.592;2023-03-29T11:53:19;17.83;;;9.18;;
20482;SDS011;10400;53.198;6.592;2023-03-29T11:55:52;15.88;;;9.43;;
20482;SDS011;10400;53.198;6.592;2023-03-29T11:58:25;14.50;;;8.90;;
20482;SDS011;10400;53.198;6.592;2023-03-29T12:01:00;13.23;;;9.00;;
20482;SDS011;10400;53.198;6.592;2023-03-29T12:09:01;12.52;;;8.68;;
20482;SDS011;10400;53.198;6.592;2023-03-29T12:11:42;16.42;;;9.85;;
20482;SDS011;10400;53.198;6.592;2023-03-29T12:17:08;11.68;;;8.15;;
20482;SDS011;10400;53.198;6.592;2023-03-29T12:19:54;13.90;;;8.88;;
20482;SDS011;10400;53.198;6.592;2023-03-29T12:22:23;11.20;;;7.88;;
20482;SDS011;10400;53.198;6.592;2023-03-29T12:24:49;11.82;;;7.15;;
20482;SDS011;10400;53.198;6.592;2023-03-29T12:27:23;12.30;;;7.65;;
20482;SDS011;10400;53.198;6.592;2023-03-29T12:33:07;10.75;;;7.40;;
20482;SDS011;10400;53.198;6.592;2023-03-29T12:36:03;15.80;;;8.10;;
20482;SDS011;10400;53.198;6.592;2023-03-29T12:38:41;11.52;;;7.35;;
20482;SDS011;10400;53.198;6.592;2023-03-29T12:41:18;12.27;;;7.32;;
20482;SDS011;10400;53.198;6.592;2023-03-29T12:43:48;8.75;;;7.45;;
20482;SDS011;10400;53.198;6.592;2023-03-29T12:46:16;13.38;;;7.72;;
20482;SDS011;10400;53.198;6.592;2023-03-29T12:49:06;9.05;;;6.70;;
20482;SDS011;10400;53.198;6.592;2023-03-29T12:51:49;10.30;;;7.25;;
20482;SDS011;10400;53.198;6.592;2023-03-29T12:54:16;9.85;;;6.88;;
20482;SDS011;10400;53.198;6.592;2023-03-29T13:01:57;11.45;;;7.50;;
20482;SDS011;10400;53.198;6.592;2023-03-29T13:14:40;10.82;;;7.43;;
20482;SDS011;10400;53.198;6.592;2023-03-29T13:17:11;11.65;;;6.97;;
20482;SDS011;10400;53.198;6.592;2023-03-29T13:20:17;9.30;;;7.10;;
20482;SDS011;10400;53.198;6.592;2023-03-29T13:33:38;12.95;;;8.00;;
20482;SDS011;10400;53.198;6.592;2023-03-29T13:39:22;10.95;;;7.28;;
20482;SDS011;10400;53.198;6.592;2023-03-29T13:41:52;10.23;;;7.75;;
20482;SDS011;10400;53.198;6.592;2023-03-29T13:44:41;11.18;;;7.82;;
20482;SDS011;10400;53.198;6.592;2023-03-29T13:49:58;14.98;;;7.80;;
20482;SDS011;10400;53.198;6.592;2023-03-29T13:52:29;12.40;;;7.22;;
20482;SDS011;10400;53.198;6.592;2023-03-29T13:55:13;14.07;;;7.55;;
20482;SDS011;10400;53.198;6.592;2023-03-29T13:57:54;10.45;;;7.55;;
20482;SDS011;10400;53.198;6.592;2023-03-29T14:00:38;12.90;;;7.40;;
20482;SDS011;10400;53.198;6.592;2023-03-29T14:03:13;12.70;;;6.93;;
20482;SDS011;10400;53.198;6.592;2023-03-29T14:05:43;10.10;;;6.80;;
20482;SDS011;10400;53.198;6.592;2023-03-29T14:08:20;13.15;;;7.00;;
20482;SDS011;10400;53.198;6.592;2023-03-29T14:10:50;9.88;;;7.30;;
20482;SDS011;10400;53.198;6.592;2023-03-29T14:13:18;10.02;;;6.68;;
20482;SDS011;10400;53.198;6.592;2023-03-29T14:15:48;9.18;;;6.22;;
20482;SDS011;10400;53.198;6.592;2023-03-29T14:18:26;10.38;;;6.40;;
20482;SDS011;10400;53.198;6.592;2023-03-29T14:20:57;10.77;;;6.78;;
20482;SDS011;10400;53.198;6.592;2023-03-29T14:23:26;10.75;;;6.72;;
20482;SDS011;10400;53.198;6.592;2023-03-29T14:26:07;10.63;;;6.72;;
20482;SDS011;10400;53.198;6.592;2023-03-29T14:28:44;10.90;;;6.55;;
20482;SDS011;10400;53.198;6.592;2023-03-29T14:34:06;9.50;;;5.80;;
20482;SDS011;10400;53.198;6.592;2023-03-29T14:36:46;8.85;;;6.07;;
20482;SDS011;10400;53.198;6.592;2023-03-29T14:39:17;9.60;;;5.72;;
20482;SDS011;10400;53.198;6.592;2023-03-29T14:41:55;11.07;;;6.45;;
20482;SDS011;10400;53.198;6.592;2023-03-29T14:44:28;11.25;;;6.05;;
20482;SDS011;10400;53.198;6.592;2023-03-29T14:46:55;9.15;;;5.97;;
20482;SDS011;10400;53.198;6.592;2023-03-29T14:49:22;11.70;;;6.78;;
20482;SDS011;10400;53.198;6.592;2023-03-29T14:51:48;9.02;;;6.00;;
20482;SDS011;10400;53.198;6.592;2023-03-29T14:54:34;9.68;;;6.07;;
20482;SDS011;10400;53.198;6.592;2023-03-29T14:57:02;11.52;;;6.45;;
20482;SDS011;10400;53.198;6.592;2023-03-29T14:59:34;12.52;;;6.55;;
20482;SDS011;10400;53.198;6.592;2023-03-29T15:02:00;8.40;;;5.45;;
20482;SDS011;10400;53.198;6.592;2023-03-29T15:04:33;10.27;;;6.25;;
20482;SDS011;10400;53.198;6.592;2023-03-29T15:07:00;11.00;;;6.55;;
20482;SDS011;10400;53.198;6.592;2023-03-29T15:09:30;12.07;;;6.72;;
20482;SDS011;10400;53.198;6.592;2023-03-29T15:11:58;11.07;;;6.90;;
20482;SDS011;10400;53.198;6.592;2023-03-29T15:14:27;12.23;;;7.00;;
20482;SDS011;10400;53.198;6.592;2023-03-29T15:17:00;11.13;;;7.32;;
20482;SDS011;10400;53.198;6.592;2023-03-29T15:19:29;11.00;;;7.22;;
20482;SDS011;10400;53.198;6.592;2023-03-29T15:21:55;13.80;;;7.22;;
20482;SDS011;10400;53.198;6.592;2023-03-29T15:24:26;11.13;;;7.32;;
20482;SDS011;10400;53.198;6.592;2023-03-29T15:26:56;16.00;;;7.10;;
20482;SDS011;10400;53.198;6.592;2023-03-29T15:29:37;12.27;;;7.45;;
20482;SDS011;10400;53.198;6.592;2023-03-29T15:32:52;12.48;;;7.72;;
20482;SDS011;10400;53.198;6.592;2023-03-29T15:34:58;11.00;;;6.95;;
20482;SDS011;10400;53.198;6.592;2023-03-29T15:37:25;12.05;;;6.88;;
20482;SDS011;10400;53.198;6.592;2023-03-29T15:39:51;14.00;;;8.10;;
20482;SDS011;10400;53.198;6.592;2023-03-29T15:42:17;11.80;;;8.20;;
20482;SDS011;10400;53.198;6.592;2023-03-29T15:44:42;15.90;;;7.60;;
20482;SDS011;10400;53.198;6.592;2023-03-29T15:47:08;12.40;;;7.25;;
20482;SDS011;10400;53.198;6.592;2023-03-29T15:49:34;12.38;;;7.75;;
20482;SDS011;10400;53.198;6.592;2023-03-29T15:52:00;13.75;;;7.97;;
20482;SDS011;10400;53.198;6.592;2023-03-29T15:54:26;12.30;;;7.95;;
20482;SDS011;10400;53.198;6.592;2023-03-29T15:56:54;13.73;;;8.27;;
20482;SDS011;10400;53.198;6.592;2023-03-29T15:59:24;11.57;;;8.38;;
20482;SDS011;10400;53.198;6.592;2023-03-29T16:01:50;14.27;;;8.63;;
20482;SDS011;10400;53.198;6.592;2023-03-29T16:04:18;11.93;;;7.97;;
20482;SDS011;10400;53.198;6.592;2023-03-29T16:06:46;13.55;;;8.77;;
20482;SDS011;10400;53.198;6.592;2023-03-29T16:09:14;14.65;;;8.93;;
20482;SDS011;10400;53.198;6.592;2023-03-29T16:11:41;12.98;;;8.55;;
20482;SDS011;10400;53.198;6.592;2023-03-29T16:16:48;16.33;;;8.70;;
20482;SDS011;10400;53.198;6.592;2023-03-29T16:19:14;14.43;;;7.97;;
20482;SDS011;10400;53.198;6.592;2023-03-29T16:21:40;11.50;;;7.93;;
20482;SDS011;10400;53.198;6.592;2023-03-29T16:24:16;12.95;;;8.82;;
20482;SDS011;10400;53.198;6.592;2023-03-29T16:26:48;12.68;;;8.75;;
20482;SDS011;10400;53.198;6.592;2023-03-29T16:29:14;11.25;;;8.52;;
20482;SDS011;10400;53.198;6.592;2023-03-29T16:31:41;11.57;;;8.65;;
20482;SDS011;10400;53.198;6.592;2023-03-29T16:34:08;14.20;;;8.15;;
20482;SDS011;10400;53.198;6.592;2023-03-29T16:36:36;10.88;;;6.50;;
20482;SDS011;10400;53.198;6.592;2023-03-29T16:39:04;10.63;;;7.47;;
20482;SDS011;10400;53.198;6.592;2023-03-29T16:41:31;10.18;;;7.32;;
20482;SDS011;10400;53.198;6.592;2023-03-29T16:43:59;10.25;;;6.53;;
20482;SDS011;10400;53.198;6.592;2023-03-29T16:46:25;10.55;;;7.25;;
20482;SDS011;10400;53.198;6.592;2023-03-29T16:48:50;11.13;;;6.60;;
20482;SDS011;10400;53.198;6.592;2023-03-29T16:51:17;10.02;;;6.13;;
20482;SDS011;10400;53.198;6.592;2023-03-29T16:53:43;8.85;;;6.20;;
20482;SDS011;10400;53.198;6.592;2023-03-29T16:56:11;10.55;;;6.55;;
20482;SDS011;10400;53.198;6.592;2023-03-29T16:58:38;11.32;;;6.78;;
20482;SDS011;10400;53.198;6.592;2023-03-29T17:01:08;9.40;;;6.75;;
20482;SDS011;10400;53.198;6.592;2023-03-29T17:03:35;10.77;;;7.43;;